createdAt,value
2019-04-10T00:01:23.631Z,4.30
2019-04-10T00:05:27.737Z,4.40
2019-04-10T00:09:30.862Z,4.60
2019-04-10T00:13:34.373Z,4.50
2019-04-10T00:17:37.533Z,4.70
2019-04-10T00:21:41.749Z,4.50
2019-04-10T00:25:48.712Z,4.50
2019-04-10T00:29:52.346Z,4.50
2019-04-10T00:33:55.448Z,4.50
2019-04-10T00:38:05.156Z,4.40
2019-04-10T00:42:08.473Z,4.60
2019-04-10T00:46:11.606Z,4.70
2019-04-10T00:50:14.702Z,4.50
2019-04-10T00:54:18.170Z,4.30
2019-04-10T00:58:21.195Z,4.20
2019-04-10T01:02:24.817Z,4.60
2019-04-10T01:06:28.199Z,4.40
2019-04-10T01:10:34.587Z,4.40
2019-04-10T01:14:38.066Z,4.00
2019-04-10T01:18:47.843Z,4.10
2019-04-10T01:22:51.832Z,4.10
2019-04-10T01:26:55.898Z,4.20
2019-04-10T01:30:59.142Z,4.10
2019-04-10T01:35:02.507Z,4.10
2019-04-10T01:39:08.922Z,4.00
2019-04-10T01:43:15.887Z,3.90
2019-04-10T01:47:20.024Z,3.90
2019-04-10T01:51:23.436Z,4.00
2019-04-10T01:55:29.838Z,4.20
2019-04-10T01:59:32.851Z,4.00
2019-04-10T02:03:36.263Z,3.50
2019-04-10T02:08:08.584Z,3.50
2019-04-10T02:12:07.821Z,3.30
2019-04-10T02:16:10.846Z,3.30
2019-04-10T02:20:14.600Z,3.20
2019-04-10T02:24:18.564Z,2.90
2019-04-10T02:28:24.895Z,3.30
2019-04-10T02:32:28.369Z,3.30
2019-04-10T02:36:31.786Z,3.30
2019-04-10T02:40:37.329Z,3.40
2019-04-10T02:44:41.659Z,3.40
2019-04-10T02:48:44.776Z,3.60
2019-04-10T02:52:50.102Z,3.60
2019-04-10T02:56:52.826Z,3.50
2019-04-10T03:00:56.349Z,3.50
2019-04-10T03:05:07.156Z,3.40
2019-04-10T03:09:30.657Z,3.20
2019-04-10T03:13:19.674Z,3.20
2019-04-10T03:17:26.087Z,3.10
2019-04-10T03:21:29.324Z,2.90
2019-04-10T03:25:33.207Z,2.90
2019-04-10T03:29:36.272Z,3.10
2019-04-10T03:33:52.907Z,3.10
2019-04-10T03:37:55.260Z,2.70
2019-04-10T03:42:01.196Z,2.90
2019-04-10T03:46:05.374Z,2.90
2019-04-10T03:50:10.589Z,2.90
2019-04-10T03:54:13.864Z,2.90
2019-04-10T03:58:17.599Z,2.90
2019-04-10T04:02:27.425Z,3.00
2019-04-10T04:06:31.453Z,3.00
2019-04-10T04:10:37.294Z,2.90
2019-04-10T04:14:40.875Z,2.70
2019-04-10T04:18:44.080Z,2.70
2019-04-10T04:22:47.610Z,2.70
2019-04-10T04:26:51.012Z,2.60
2019-04-10T04:31:00.929Z,2.80
2019-04-10T04:35:11.202Z,3.00
2019-04-10T04:39:21.771Z,2.70
2019-04-10T04:43:28.603Z,2.90
2019-04-10T04:47:31.778Z,2.70
2019-04-10T04:51:37.591Z,2.60
2019-04-10T04:55:40.642Z,2.60
2019-04-10T04:59:50.505Z,2.80
2019-04-10T05:03:54.771Z,2.90
2019-04-10T05:08:02.194Z,3.10
2019-04-10T05:12:09.308Z,3.20
2019-04-10T05:16:12.490Z,2.90
2019-04-10T05:20:21.648Z,2.70
2019-04-10T05:24:24.733Z,3.00
2019-04-10T05:28:33.672Z,3.20
2019-04-10T05:32:37.563Z,3.20
2019-04-10T05:36:41.975Z,3.00
2019-04-10T05:40:45.400Z,3.00
2019-04-10T05:44:52.282Z,2.90
2019-04-10T05:48:58.468Z,3.00
2019-04-10T05:53:10.373Z,2.80
2019-04-10T05:57:20.164Z,2.90
2019-04-10T06:01:35.915Z,2.80
2019-04-10T06:05:36.973Z,3.00
2019-04-10T06:09:52.026Z,3.20
2019-04-10T06:13:45.150Z,3.60
2019-04-10T06:17:49.036Z,3.80
2019-04-10T06:21:52.449Z,4.00
2019-04-10T06:25:58.505Z,4.20
2019-04-10T06:30:01.960Z,4.20
2019-04-10T06:34:05.322Z,4.60
2019-04-10T06:38:08.559Z,4.50
2019-04-10T06:42:14.869Z,4.70
2019-04-10T06:46:17.897Z,4.70
2019-04-10T06:50:24.155Z,4.80
2019-04-10T06:54:31.002Z,5.10
2019-04-10T06:58:34.150Z,5.30
2019-04-10T07:02:40.231Z,5.30
2019-04-10T07:06:57.109Z,5.50
2019-04-10T07:10:55.429Z,5.60
2019-04-10T07:14:57.772Z,5.90
2019-04-10T07:19:01.609Z,6.00
2019-04-10T07:23:03.497Z,6.00
2019-04-10T07:27:09.849Z,6.20
2019-04-10T07:31:13.115Z,6.50
2019-04-10T07:35:19.618Z,6.40
2019-04-10T07:39:21.483Z,6.80
2019-04-10T07:43:27.447Z,7.00
2019-04-10T07:47:29.481Z,6.70
2019-04-10T07:51:32.416Z,6.80
2019-04-10T07:55:35.491Z,6.70
2019-04-10T07:59:38.536Z,6.80
2019-04-10T08:03:41.683Z,7.00
2019-04-10T08:07:45.224Z,7.00
2019-04-10T08:11:48.900Z,7.20
2019-04-10T08:15:52.235Z,7.20
2019-04-10T08:19:59.456Z,7.10
2019-04-10T08:24:02.614Z,7.30
2019-04-10T08:28:16.203Z,7.50
2019-04-10T08:32:19.695Z,7.50
2019-04-10T08:36:25.704Z,7.50
2019-04-10T08:40:32.131Z,7.80
2019-04-10T08:44:38.387Z,7.90
2019-04-10T08:48:41.447Z,8.20
2019-04-10T08:52:44.621Z,8.40
2019-04-10T08:56:54.659Z,8.40
2019-04-10T09:00:58.702Z,8.40
2019-04-10T09:05:01.761Z,8.60
2019-04-10T09:09:07.564Z,8.50
2019-04-10T09:13:10.743Z,8.70
2019-04-10T09:17:13.804Z,8.90
2019-04-10T09:21:17.777Z,9.10
2019-04-10T09:25:20.792Z,9.20
2019-04-10T09:29:24.713Z,9.40
2019-04-10T09:33:30.771Z,9.60
2019-04-10T09:37:34.385Z,9.70
2019-04-10T09:41:38.274Z,9.80
2019-04-10T09:45:41.651Z,9.80
2019-04-10T09:49:46.782Z,9.80
2019-04-10T09:53:51.006Z,10.00
2019-04-10T09:57:54.114Z,10.20
2019-04-10T10:01:58.309Z,10.80
2019-04-10T10:06:04.781Z,10.60
2019-04-10T10:10:08.725Z,10.60
2019-04-10T10:14:15.435Z,12.50
2019-04-10T10:18:19.293Z,11.10
2019-04-10T10:22:25.309Z,9.40
2019-04-10T10:26:34.412Z,9.00
2019-04-10T10:30:37.721Z,9.80
2019-04-10T10:34:40.861Z,10.10
2019-04-10T10:39:02.911Z,10.60
2019-04-10T10:42:54.724Z,10.90
2019-04-10T10:47:06.787Z,10.20
2019-04-10T10:51:10.707Z,10.90
2019-04-10T10:55:17.762Z,12.60
2019-04-10T10:59:21.783Z,14.00
2019-04-10T11:03:30.622Z,13.20
2019-04-10T11:07:36.743Z,12.70
2019-04-10T11:11:40.961Z,13.80
2019-04-10T11:15:48.221Z,15.60
2019-04-10T11:19:55.862Z,17.10
2019-04-10T11:24:03.061Z,18.00
2019-04-10T11:28:09.297Z,19.00
2019-04-10T11:32:14.217Z,19.40
2019-04-10T11:36:17.606Z,19.40
2019-04-10T11:40:20.990Z,19.20
2019-04-10T11:44:24.925Z,17.80
2019-04-10T11:48:32.232Z,15.50
2019-04-10T11:56:40.195Z,16.30
2019-04-10T12:04:54.216Z,19.30
2019-04-10T12:09:13.337Z,18.20
2019-04-10T12:12:58.227Z,18.00
2019-04-10T12:17:05.379Z,15.80
2019-04-10T12:21:09.389Z,15.70
2019-04-10T12:25:14.482Z,17.90
2019-04-10T12:29:19.730Z,19.20
2019-04-10T12:33:25.858Z,19.70
2019-04-10T12:37:29.027Z,20.70
2019-04-10T12:41:33.146Z,20.60
2019-04-10T12:45:36.535Z,20.00
2019-04-10T12:49:43.519Z,20.80
2019-04-10T12:53:49.442Z,20.00
2019-04-10T12:58:00.016Z,19.20
2019-04-10T13:01:57.475Z,20.10
2019-04-10T13:06:05.039Z,20.70
2019-04-10T13:10:08.816Z,20.00
2019-04-10T13:14:20.927Z,19.70
2019-04-10T13:18:24.636Z,19.60
2019-04-10T13:22:28.445Z,20.10
2019-04-10T13:26:32.322Z,19.20
2019-04-10T13:30:46.694Z,18.00
2019-04-10T13:34:40.307Z,17.60
2019-04-10T13:38:44.370Z,19.50
2019-04-10T13:42:47.489Z,20.10
2019-04-10T13:46:51.222Z,20.90
2019-04-10T13:50:57.545Z,20.90
2019-04-10T13:55:01.076Z,21.90
2019-04-10T13:59:04.743Z,18.60
2019-04-10T14:03:08.068Z,19.00
2019-04-10T14:07:12.033Z,17.60
2019-04-10T14:11:17.406Z,17.70
2019-04-10T14:15:20.687Z,17.00
2019-04-10T14:19:27.748Z,19.90
2019-04-10T14:23:33.753Z,20.90
2019-04-10T14:27:38.405Z,18.60
2019-04-10T14:31:51.024Z,17.40
2019-04-10T14:35:54.259Z,16.30
2019-04-10T14:39:57.735Z,15.30
2019-04-10T14:44:01.928Z,18.00
2019-04-10T14:48:05.744Z,19.00
2019-04-10T14:52:12.699Z,20.40
2019-04-10T14:56:15.722Z,21.00
2019-04-10T15:00:37.289Z,20.90
2019-04-10T15:04:41.396Z,20.00
2019-04-10T15:08:48.772Z,19.70
2019-04-10T15:12:53.305Z,18.50
2019-04-10T15:17:06.611Z,18.30
2019-04-10T15:21:12.382Z,17.70
2019-04-10T15:25:15.935Z,17.00
2019-04-10T15:29:20.403Z,16.20
2019-04-10T15:33:24.636Z,15.60
2019-04-10T15:37:29.011Z,15.30
2019-04-10T15:41:35.163Z,15.00
2019-04-10T15:45:38.241Z,14.00
2019-04-10T15:49:41.468Z,14.00
2019-04-10T15:53:51.420Z,14.10
2019-04-10T15:57:57.889Z,13.60
2019-04-10T16:02:00.094Z,13.50
2019-04-10T16:06:06.144Z,13.60
2019-04-10T16:10:28.997Z,13.20
2019-04-10T16:14:33.264Z,13.40
2019-04-10T16:18:36.692Z,13.10
2019-04-10T16:22:46.769Z,12.90
2019-04-10T16:26:49.849Z,12.80
2019-04-10T16:30:52.919Z,12.90
2019-04-10T16:34:56.791Z,12.90
2019-04-10T16:39:00.808Z,12.60
2019-04-10T16:43:05.957Z,12.40
2019-04-10T16:47:10.011Z,12.40
2019-04-10T16:51:17.238Z,12.50
2019-04-10T16:55:21.470Z,12.40
2019-04-10T16:59:25.521Z,12.30
2019-04-10T17:03:29.593Z,11.80
2019-04-10T17:07:32.979Z,11.80
2019-04-10T17:11:37.272Z,11.80
2019-04-10T17:15:41.815Z,11.60
2019-04-10T17:19:52.127Z,11.50
2019-04-10T17:23:51.032Z,11.40
2019-04-10T17:27:54.235Z,11.30
2019-04-10T17:31:57.381Z,11.00
2019-04-10T17:36:04.275Z,11.10
2019-04-10T17:40:25.051Z,10.60
2019-04-10T17:44:17.987Z,10.80
2019-04-10T17:48:22.000Z,10.30
2019-04-10T17:52:25.302Z,10.30
2019-04-10T17:56:30.539Z,10.30
2019-04-10T18:00:43.205Z,10.10
2019-04-10T18:04:46.363Z,10.00
2019-04-10T18:08:49.405Z,9.90
2019-04-10T18:12:52.401Z,9.90
2019-04-10T18:16:58.210Z,10.00
2019-04-10T18:21:07.183Z,9.90
2019-04-10T18:25:16.177Z,9.70
2019-04-10T18:29:23.253Z,9.40
2019-04-10T18:33:26.539Z,9.40
2019-04-10T18:37:30.760Z,9.40
2019-04-10T18:41:34.313Z,9.30
2019-04-10T18:45:42.038Z,9.40
2019-04-10T18:49:48.551Z,9.10
2019-04-10T18:53:51.560Z,8.90
2019-04-10T18:57:54.937Z,8.70
2019-04-10T19:02:20.207Z,8.70
2019-04-10T19:06:28.639Z,8.30
2019-04-10T19:10:35.018Z,8.50
2019-04-10T19:14:38.685Z,8.60
2019-04-10T19:18:41.875Z,8.70
2019-04-10T19:22:45.011Z,8.30
2019-04-10T19:26:53.923Z,8.20
2019-04-10T19:31:08.790Z,8.40
2019-04-10T19:35:06.947Z,8.40
2019-04-10T19:39:16.094Z,8.20
2019-04-10T19:43:27.535Z,8.20
2019-04-10T19:47:33.104Z,7.90
2019-04-10T19:51:36.396Z,7.90
2019-04-10T19:55:40.048Z,8.20
2019-04-10T19:59:44.076Z,8.10
2019-04-10T20:03:48.032Z,7.60
2019-04-10T20:07:51.404Z,7.80
2019-04-10T20:11:57.198Z,7.60
2019-04-10T20:16:00.740Z,7.40
2019-04-10T20:20:04.749Z,7.70
2019-04-10T20:24:08.203Z,7.60
2019-04-10T20:28:12.269Z,7.50
2019-04-10T20:32:15.398Z,7.40
2019-04-10T20:36:22.685Z,7.60
2019-04-10T20:40:25.855Z,8.00
2019-04-10T20:44:29.141Z,7.70
2019-04-10T20:48:32.811Z,7.40
2019-04-10T20:52:39.089Z,7.40
2019-04-10T20:56:41.080Z,7.40
2019-04-10T21:00:47.422Z,7.40
2019-04-10T21:04:56.408Z,7.60
2019-04-10T21:08:55.425Z,7.50
2019-04-10T21:12:59.690Z,7.80
2019-04-10T21:17:03.171Z,7.30
2019-04-10T21:21:10.197Z,7.10
2019-04-10T21:25:17.038Z,7.00
2019-04-10T21:29:44.188Z,7.10
2019-04-10T21:34:07.633Z,7.20
2019-04-10T21:38:11.015Z,7.60
2019-04-10T21:42:20.064Z,7.70
2019-04-10T21:46:19.968Z,7.60
2019-04-10T21:50:23.255Z,7.30
2019-04-10T21:54:26.993Z,7.30
2019-04-10T21:58:32.933Z,7.40
2019-04-10T22:02:46.271Z,7.50
2019-04-10T22:07:14.076Z,7.40
2019-04-10T22:11:21.153Z,7.70
2019-04-10T22:15:39.315Z,7.40
2019-04-10T22:19:43.083Z,7.40
2019-04-10T22:23:46.978Z,7.30
2019-04-10T22:27:54.166Z,7.20
2019-04-10T22:32:00.348Z,7.30
2019-04-10T22:36:06.704Z,7.20
2019-04-10T22:40:11.208Z,7.30
2019-04-10T22:44:14.300Z,7.30
2019-04-10T22:48:17.341Z,7.10
2019-04-10T22:52:20.635Z,7.10
2019-04-10T22:56:23.773Z,7.30
2019-04-10T23:00:32.416Z,7.50
2019-04-10T23:04:42.823Z,7.20
2019-04-10T23:08:46.064Z,7.30
2019-04-10T23:13:01.320Z,7.60
2019-04-10T23:17:00.278Z,7.70
2019-04-10T23:21:03.982Z,7.50
2019-04-10T23:25:10.284Z,7.50
2019-04-10T23:29:16.391Z,7.60
2019-04-10T23:33:19.712Z,7.60
2019-04-10T23:37:22.771Z,7.50
2019-04-10T23:41:29.604Z,7.50
2019-04-10T23:45:33.528Z,7.40
2019-04-10T23:49:37.380Z,7.30
2019-04-10T23:53:40.536Z,7.20
2019-04-10T23:57:46.603Z,7.10
